Time,TemperatureF,DewpointF,PressureIn,WindDirection,WindDirectionDegrees,WindSpeedMPH,WindSpeedGustMPH,Humidity,HourlyPrecipIn,Conditions,Clouds,dailyrainin,SoftwareType,DateUTC
2013-06-23 00:01:00,72.0,60.0,-100.00,SSW,195,3.0,5.0,67,0.00,,,-99.99,,2013-06-23 04:01:00,
2013-06-23 00:11:00,71.0,60.0,-100.00,SW,230,1.0,6.0,67,0.00,,,-99.99,,2013-06-23 04:11:00,
2013-06-23 03:02:00,67.0,60.0,-100.00,SSW,200,2.0,4.0,78,0.00,,,-99.99,,2013-06-23 07:02:00,
2013-06-23 03:12:00,67.0,60.0,-100.00,SSW,195,3.0,5.0,76,0.00,,,-99.99,,2013-06-23 07:12:00,
2013-06-23 03:22:00,67.0,60.0,-100.00,South,190,2.0,5.0,76,0.00,,,-99.99,,2013-06-23 07:22:00,
2013-06-23 06:02:00,65.0,59.0,-100.00,East,80,0.0,2.0,79,0.00,,,-99.99,,2013-06-23 10:02:00,
2013-06-23 08:43:00,71.0,60.0,-100.00,SSW,200,2.0,4.0,69,0.00,,,-99.99,,2013-06-23 12:43:00,
2013-06-23 09:02:00,71.0,61.0,-100.00,WSW,250,2.0,5.0,69,0.00,,,-99.99,,2013-06-23 13:02:00,
2013-06-23 09:12:00,72.0,61.0,-100.00,WSW,250,2.0,6.0,70,0.00,,,-99.99,,2013-06-23 13:12:00,
2013-06-23 10:22:00,76.0,64.0,-100.00,WSW,240,4.0,6.0,66,0.00,,,-99.99,,2013-06-23 14:22:00,
2013-06-23 12:06:00,83.0,67.0,-100.00,WSW,255,2.0,6.0,59,0.00,,,-99.99,,2013-06-23 16:06:00,
2013-06-23 12:12:00,83.0,68.0,-100.00,WSW,250,2.0,5.0,60,0.00,,,-99.99,,2013-06-23 16:12:00,
2013-06-23 13:22:00,86.0,69.0,-100.00,South,185,6.0,10.0,56,0.00,,,-99.99,,2013-06-23 17:22:00,
2013-06-23 14:22:00,89.0,71.0,-100.00,SSW,200,6.0,14.0,54,0.00,,,-99.99,,2013-06-23 18:22:00,
2013-06-23 14:34:00,90.0,71.0,-100.00,SW,225,4.0,12.0,53,0.00,,,-99.99,,2013-06-23 18:34:00,
2013-06-23 17:01:00,90.0,70.0,-100.00,WSW,255,6.0,11.0,50,0.00,,,-99.99,,2013-06-23 21:01:00,
2013-06-23 17:12:00,90.0,69.0,-100.00,WSW,245,7.0,15.0,49,0.00,,,-99.99,,2013-06-23 21:12:00,
2013-06-23 18:01:00,89.0,69.0,-100.00,West,265,5.0,10.0,51,0.00,,,-99.99,,2013-06-23 22:01:00,
2013-06-23 18:12:00,89.0,69.0,-100.00,West,270,4.0,12.0,52,0.00,,,-99.99,,2013-06-23 22:12:00,
2013-06-23 20:01:00,84.0,67.0,-100.00,West,275,4.0,10.0,56,0.00,,,-99.99,,2013-06-24 00:01:00,
2013-06-23 20:11:00,83.0,67.0,-100.00,West,265,4.0,9.0,57,0.00,,,-99.99,,2013-06-24 00:11:00,